N841N KCYS-KAPC
Flight info
| Callsign | N841N |
|---|---|
| Flight time | 2h 25m |
| Altitude | 40000 |
| Route | FROGS J100 EKR J84 MELTS TIPRE SUU |
| Aircraft | CL60/M-SBDE1E2E3FGHIJ1J4J5J7M3RWXYZ/LB1V1D1 |
Departure
| Time | 2026-04-11 22:09 |
|---|---|
| Airport | Cheyenne Regional Jerry Olson Field (KCYS) |
Arrival
| Time | 2026-04-12 00:34 |
|---|---|
| Airport | Napa County Airport (KAPC) |
| Time | Latitude | Longitude | Altitude | Speed | Heading |
|---|---|---|---|---|---|
| 2026-04-11 21:42 | 41.15094 | -104.81751 | 6143 ft | 0 kts | 269° |
| 2026-04-11 22:00 | 41.15111 | -104.81770 | 6144 ft | 6 kts | 333° |
| 2026-04-11 22:00 | 41.15179 | -104.81776 | 6144 ft | 11 kts | 357° |
| 2026-04-11 22:01 | 41.15260 | -104.81780 | 6145 ft | 12 kts | 356° |
| 2026-04-11 22:01 | 41.15348 | -104.81782 | 6146 ft | 12 kts | 11° |
| 2026-04-11 22:01 | 41.15427 | -104.81699 | 6146 ft | 17 kts | 44° |
| 2026-04-11 22:01 | 41.15492 | -104.81583 | 6145 ft | 14 kts | 88° |
| 2026-04-11 22:02 | 41.15482 | -104.81426 | 6143 ft | 20 kts | 95° |
| 2026-04-11 22:02 | 41.15468 | -104.81220 | 6140 ft | 24 kts | 96° |
| 2026-04-11 22:02 | 41.15453 | -104.81001 | 6137 ft | 20 kts | 95° |
| 2026-04-11 22:02 | 41.15440 | -104.80803 | 6134 ft | 24 kts | 95° |
| 2026-04-11 22:03 | 41.15423 | -104.80563 | 6130 ft | 27 kts | 95° |
| 2026-04-11 22:03 | 41.15406 | -104.80325 | 6125 ft | 23 kts | 95° |
| 2026-04-11 22:03 | 41.15390 | -104.80093 | 6121 ft | 26 kts | 95° |
| 2026-04-11 22:03 | 41.15373 | -104.79858 | 6117 ft | 25 kts | 95° |
| 2026-04-11 22:04 | 41.15356 | -104.79608 | 6111 ft | 28 kts | 95° |
| 2026-04-11 22:04 | 41.15341 | -104.79393 | 6107 ft | 24 kts | 95° |
| 2026-04-11 22:04 | 41.15324 | -104.79160 | 6100 ft | 25 kts | 95° |
| 2026-04-11 22:04 | 41.15309 | -104.78960 | 6096 ft | 15 kts | 95° |
| 2026-04-11 22:05 | 41.15302 | -104.78818 | 6092 ft | 12 kts | 78° |
| 2026-04-11 22:05 | 41.15352 | -104.78787 | 6091 ft | 0 kts | 3° |
| 2026-04-11 22:07 | 41.15353 | -104.78787 | 6091 ft | 0 kts | 3° |
| 2026-04-11 22:08 | 41.15376 | -104.78785 | 6091 ft | 6 kts | 4° |
| 2026-04-11 22:08 | 41.15434 | -104.78796 | 6091 ft | 10 kts | 321° |
| 2026-04-11 22:08 | 41.15464 | -104.79081 | 6098 ft | 68 kts | 275° |
| 2026-04-11 22:08 | 41.15531 | -104.80039 | 6120 ft | 138 kts | 275° |
| 2026-04-11 22:09 | 41.15611 | -104.81475 | 6422 ft | 166 kts | 264° |
| 2026-04-11 22:09 | 41.15319 | -104.83054 | 6836 ft | 192 kts | 243° |
| 2026-04-11 22:09 | 41.14546 | -104.84674 | 7302 ft | 221 kts | 233° |
| 2026-04-11 22:09 | 41.13602 | -104.86400 | 8073 ft | 236 kts | 233° |
| 2026-04-11 22:10 | 41.12642 | -104.88157 | 9087 ft | 238 kts | 234° |
| 2026-04-11 22:10 | 41.11680 | -104.89926 | 10098 ft | 239 kts | 234° |
| 2026-04-11 22:10 | 41.10688 | -104.91757 | 10750 ft | 255 kts | 234° |
| 2026-04-11 22:10 | 41.09604 | -104.93761 | 11393 ft | 272 kts | 234° |
| 2026-04-11 22:11 | 41.08443 | -104.95782 | 12113 ft | 281 kts | 232° |
| 2026-04-11 22:11 | 41.07228 | -104.97823 | 12913 ft | 284 kts | 232° |
| 2026-04-11 22:11 | 41.05998 | -104.99894 | 13832 ft | 285 kts | 232° |
| 2026-04-11 22:11 | 41.04784 | -105.01937 | 14741 ft | 288 kts | 232° |
| 2026-04-11 22:12 | 41.03553 | -105.04009 | 15677 ft | 288 kts | 232° |
| 2026-04-11 22:12 | 41.02324 | -105.06072 | 16597 ft | 287 kts | 232° |
| 2026-04-11 22:12 | 41.01096 | -105.08134 | 17515 ft | 286 kts | 232° |
| 2026-04-11 22:12 | 40.99863 | -105.10204 | 18433 ft | 283 kts | 232° |
| 2026-04-11 22:13 | 40.98645 | -105.12246 | 19278 ft | 283 kts | 231° |
| 2026-04-11 22:13 | 40.97429 | -105.14285 | 20103 ft | 282 kts | 231° |
| 2026-04-11 22:13 | 40.96195 | -105.16352 | 20470 ft | 296 kts | 231° |
| 2026-04-11 22:13 | 40.94870 | -105.18570 | 20741 ft | 312 kts | 231° |
| 2026-04-11 22:14 | 40.93496 | -105.20870 | 21061 ft | 324 kts | 231° |
| 2026-04-11 22:14 | 40.92077 | -105.23243 | 21431 ft | 334 kts | 231° |
| 2026-04-11 22:14 | 40.90601 | -105.25710 | 21856 ft | 342 kts | 230° |
| 2026-04-11 22:14 | 40.89145 | -105.28142 | 22302 ft | 347 kts | 231° |
| 2026-04-11 22:15 | 40.87615 | -105.30696 | 22781 ft | 352 kts | 230° |
| 2026-04-11 22:15 | 40.86063 | -105.33283 | 23283 ft | 356 kts | 230° |
| 2026-04-11 22:15 | 40.84524 | -105.35848 | 23804 ft | 358 kts | 231° |
| 2026-04-11 22:15 | 40.82935 | -105.38496 | 24352 ft | 360 kts | 230° |
| 2026-04-11 22:16 | 40.81379 | -105.41080 | 24883 ft | 362 kts | 231° |
| 2026-04-11 22:16 | 40.79797 | -105.43713 | 25410 ft | 362 kts | 231° |
| 2026-04-11 22:16 | 40.78208 | -105.46352 | 25940 ft | 362 kts | 231° |
| 2026-04-11 22:16 | 40.76653 | -105.48936 | 26452 ft | 363 kts | 230° |
| 2026-04-11 22:17 | 40.75086 | -105.51533 | 26975 ft | 362 kts | 231° |
| 2026-04-11 22:17 | 40.73513 | -105.54141 | 27496 ft | 362 kts | 231° |
| 2026-04-11 22:17 | 40.71954 | -105.56722 | 28001 ft | 361 kts | 231° |
| 2026-04-11 22:17 | 40.70393 | -105.59303 | 28500 ft | 360 kts | 231° |
| 2026-04-11 22:18 | 40.68822 | -105.61899 | 29007 ft | 359 kts | 231° |
| 2026-04-11 22:18 | 40.67268 | -105.64465 | 29502 ft | 359 kts | 231° |
| 2026-04-11 22:18 | 40.65720 | -105.67019 | 29999 ft | 357 kts | 230° |
| 2026-04-11 22:18 | 40.64183 | -105.69550 | 30475 ft | 356 kts | 231° |
| 2026-04-11 22:19 | 40.62637 | -105.72096 | 30949 ft | 355 kts | 230° |
| 2026-04-11 22:19 | 40.61091 | -105.74641 | 31531 ft | 350 kts | 231° |
| 2026-04-11 22:19 | 40.59596 | -105.77100 | 32313 ft | 340 kts | 230° |
| 2026-04-11 22:19 | 40.58137 | -105.79497 | 32944 ft | 333 kts | 230° |
| 2026-04-11 22:20 | 40.56708 | -105.81844 | 33508 ft | 328 kts | 230° |
| 2026-04-11 22:20 | 40.55299 | -105.84156 | 34042 ft | 323 kts | 230° |
| 2026-04-11 22:20 | 40.53886 | -105.86474 | 34514 ft | 318 kts | 230° |
| 2026-04-11 22:20 | 40.52598 | -105.88817 | 34892 ft | 317 kts | 236° |
| 2026-04-11 22:21 | 40.51639 | -105.91432 | 35227 ft | 319 kts | 244° |
| 2026-04-11 22:21 | 40.51000 | -105.94203 | 35546 ft | 319 kts | 249° |
| 2026-04-11 22:21 | 40.50412 | -105.97012 | 35851 ft | 317 kts | 249° |
| 2026-04-11 22:21 | 40.49827 | -105.99782 | 36139 ft | 315 kts | 249° |
| 2026-04-11 22:22 | 40.49240 | -106.02551 | 36490 ft | 313 kts | 248° |
| 2026-04-11 22:22 | 40.48650 | -106.05330 | 36860 ft | 312 kts | 248° |
| 2026-04-11 22:22 | 40.48072 | -106.08048 | 37198 ft | 310 kts | 248° |
| 2026-04-11 22:22 | 40.47493 | -106.10760 | 37511 ft | 309 kts | 248° |
| 2026-04-11 22:23 | 40.46914 | -106.13468 | 37809 ft | 308 kts | 248° |
| 2026-04-11 22:23 | 40.46330 | -106.16196 | 38077 ft | 308 kts | 249° |
| 2026-04-11 22:23 | 40.45748 | -106.18905 | 38326 ft | 307 kts | 248° |
| 2026-04-11 22:23 | 40.45166 | -106.21613 | 38568 ft | 307 kts | 248° |
| 2026-04-11 22:24 | 40.44586 | -106.24306 | 38807 ft | 307 kts | 248° |
| 2026-04-11 22:24 | 40.44010 | -106.26977 | 38975 ft | 307 kts | 248° |
| 2026-04-11 22:24 | 40.43422 | -106.29695 | 39171 ft | 308 kts | 249° |
| 2026-04-11 22:24 | 40.42843 | -106.32375 | 39359 ft | 307 kts | 248° |
| 2026-04-11 22:25 | 40.42260 | -106.35066 | 39516 ft | 308 kts | 248° |
| 2026-04-11 22:25 | 40.41665 | -106.37805 | 39654 ft | 308 kts | 248° |
| 2026-04-11 22:25 | 40.41079 | -106.40502 | 39813 ft | 308 kts | 249° |
| 2026-04-11 22:25 | 40.40490 | -106.43208 | 39915 ft | 308 kts | 248° |
| 2026-04-11 22:26 | 40.39903 | -106.45901 | 40039 ft | 308 kts | 249° |
| 2026-04-11 22:26 | 40.38737 | -106.51242 | 40145 ft | 311 kts | 249° |
| 2026-04-11 22:27 | 40.37592 | -106.56458 | 40132 ft | 318 kts | 248° |
| 2026-04-11 22:27 | 40.36354 | -106.62082 | 40152 ft | 325 kts | 248° |
| 2026-04-11 22:28 | 40.35086 | -106.67850 | 40171 ft | 331 kts | 248° |
| 2026-04-11 22:28 | 40.33792 | -106.73717 | 40139 ft | 338 kts | 249° |
| 2026-04-11 22:29 | 40.32471 | -106.79690 | 40136 ft | 343 kts | 249° |
| 2026-04-11 22:29 | 40.31137 | -106.85709 | 40144 ft | 349 kts | 249° |
| 2026-04-11 22:30 | 40.29769 | -106.91863 | 40158 ft | 353 kts | 249° |
| 2026-04-11 22:30 | 40.28385 | -106.98066 | 40173 ft | 357 kts | 248° |
| 2026-04-11 22:31 | 40.26985 | -107.04324 | 40167 ft | 360 kts | 249° |
| 2026-04-11 22:31 | 40.25569 | -107.10635 | 40160 ft | 364 kts | 249° |
| 2026-04-11 22:32 | 40.24135 | -107.17007 | 40127 ft | 367 kts | 249° |
| 2026-04-11 22:32 | 40.22689 | -107.23418 | 40144 ft | 369 kts | 249° |
| 2026-04-11 22:33 | 40.21226 | -107.29882 | 40128 ft | 372 kts | 249° |
| 2026-04-11 22:33 | 40.19772 | -107.36289 | 40128 ft | 373 kts | 249° |
| 2026-04-11 22:34 | 40.18277 | -107.42858 | 40123 ft | 374 kts | 249° |
| 2026-04-11 22:34 | 40.16783 | -107.49400 | 40113 ft | 376 kts | 249° |
| 2026-04-11 22:35 | 40.15286 | -107.55939 | 40114 ft | 377 kts | 250° |
| 2026-04-11 22:35 | 40.13773 | -107.62527 | 40122 ft | 378 kts | 249° |
| 2026-04-11 22:36 | 40.12263 | -107.69080 | 40125 ft | 380 kts | 249° |
| 2026-04-11 22:36 | 40.10731 | -107.75709 | 40057 ft | 382 kts | 249° |
| 2026-04-11 22:37 | 40.09188 | -107.82368 | 40055 ft | 383 kts | 249° |
| 2026-04-11 22:37 | 40.07640 | -107.89027 | 40062 ft | 383 kts | 249° |
| 2026-04-11 22:38 | 40.06281 | -107.95720 | 40043 ft | 388 kts | 254° |
| 2026-04-11 22:38 | 40.05289 | -108.02657 | 40070 ft | 388 kts | 255° |
| 2026-04-11 22:39 | 40.04285 | -108.09590 | 40045 ft | 390 kts | 255° |
| 2026-04-11 22:39 | 40.03274 | -108.16514 | 40069 ft | 390 kts | 255° |
| 2026-04-11 22:40 | 40.02256 | -108.23441 | 40057 ft | 391 kts | 255° |
| 2026-04-11 22:40 | 40.01220 | -108.30437 | 40068 ft | 391 kts | 255° |
| 2026-04-11 22:41 | 40.00188 | -108.37371 | 40053 ft | 392 kts | 255° |
| 2026-04-11 22:41 | 39.99139 | -108.44383 | 40046 ft | 393 kts | 255° |
| 2026-04-11 22:42 | 39.98087 | -108.51371 | 40046 ft | 393 kts | 255° |
| 2026-04-11 22:42 | 39.97031 | -108.58356 | 40039 ft | 394 kts | 255° |
| 2026-04-11 22:43 | 39.95431 | -108.68875 | 40036 ft | 395 kts | 255° |
| 2026-04-11 22:43 | 39.94351 | -108.75930 | 40029 ft | 395 kts | 255° |
| 2026-04-11 22:44 | 39.93274 | -108.82938 | 40027 ft | 396 kts | 255° |
| 2026-04-11 22:44 | 39.92186 | -108.89987 | 40034 ft | 397 kts | 255° |
| 2026-04-11 22:45 | 39.91099 | -108.96995 | 40022 ft | 397 kts | 255° |
| 2026-04-11 22:45 | 39.90001 | -109.04041 | 40008 ft | 398 kts | 255° |
| 2026-04-11 22:46 | 39.88897 | -109.11101 | 40002 ft | 399 kts | 255° |
| 2026-04-11 22:46 | 39.87789 | -109.18150 | 39991 ft | 401 kts | 255° |
| 2026-04-11 22:47 | 39.86669 | -109.25248 | 39993 ft | 401 kts | 255° |
| 2026-04-11 22:47 | 39.85540 | -109.32374 | 39990 ft | 402 kts | 255° |
| 2026-04-11 22:48 | 39.84409 | -109.39483 | 39986 ft | 403 kts | 255° |
| 2026-04-11 22:48 | 39.83275 | -109.46582 | 39998 ft | 402 kts | 255° |
| 2026-04-11 22:49 | 39.82127 | -109.53735 | 39985 ft | 403 kts | 255° |
| 2026-04-11 22:49 | 39.80987 | -109.60809 | 39993 ft | 403 kts | 256° |
| 2026-04-11 22:50 | 39.79832 | -109.67950 | 39981 ft | 403 kts | 255° |
| 2026-04-11 22:50 | 39.78670 | -109.75103 | 39996 ft | 403 kts | 255° |
| 2026-04-11 22:51 | 39.77507 | -109.82225 | 39986 ft | 404 kts | 255° |
| 2026-04-11 22:51 | 39.76344 | -109.89323 | 39991 ft | 404 kts | 255° |
| 2026-04-11 22:52 | 39.75173 | -109.96441 | 39981 ft | 404 kts | 255° |
| 2026-04-11 22:52 | 39.73996 | -110.03565 | 39974 ft | 404 kts | 255° |
| 2026-04-11 22:53 | 39.72818 | -110.10667 | 39994 ft | 403 kts | 255° |
| 2026-04-11 22:53 | 39.71634 | -110.17776 | 40000 ft | 402 kts | 255° |
| 2026-04-11 22:54 | 39.70446 | -110.24875 | 40001 ft | 402 kts | 255° |
| 2026-04-11 22:54 | 39.69257 | -110.31959 | 40016 ft | 402 kts | 255° |
| 2026-04-11 22:55 | 39.67464 | -110.42580 | 40023 ft | 402 kts | 255° |
| 2026-04-11 22:56 | 39.66254 | -110.49715 | 40033 ft | 402 kts | 255° |
| 2026-04-11 22:56 | 39.65053 | -110.56767 | 40013 ft | 403 kts | 255° |
| 2026-04-11 22:57 | 39.63836 | -110.63882 | 40000 ft | 403 kts | 255° |
| 2026-04-11 22:57 | 39.62617 | -110.70988 | 39957 ft | 404 kts | 255° |
| 2026-04-11 22:58 | 39.61393 | -110.78093 | 39945 ft | 405 kts | 255° |
| 2026-04-11 22:58 | 39.60162 | -110.85209 | 39972 ft | 405 kts | 255° |
| 2026-04-11 22:59 | 39.58930 | -110.92302 | 40040 ft | 403 kts | 255° |
| 2026-04-11 22:59 | 39.57699 | -110.99367 | 40043 ft | 404 kts | 255° |
| 2026-04-11 23:00 | 39.56456 | -111.06468 | 40052 ft | 405 kts | 255° |
| 2026-04-11 23:00 | 39.55210 | -111.13566 | 40061 ft | 405 kts | 255° |
| 2026-04-11 23:01 | 39.53947 | -111.20726 | 40048 ft | 406 kts | 255° |
| 2026-04-11 23:01 | 39.52692 | -111.27817 | 40038 ft | 406 kts | 255° |
| 2026-04-11 23:02 | 39.51434 | -111.34901 | 40030 ft | 406 kts | 255° |
| 2026-04-11 23:02 | 39.50163 | -111.42026 | 40018 ft | 407 kts | 255° |
| 2026-04-11 23:03 | 39.48885 | -111.49162 | 40019 ft | 407 kts | 256° |
| 2026-04-11 23:03 | 39.47606 | -111.56285 | 40009 ft | 407 kts | 255° |
| 2026-04-11 23:04 | 39.46322 | -111.63403 | 40017 ft | 406 kts | 255° |
| 2026-04-11 23:04 | 39.45032 | -111.70530 | 40015 ft | 407 kts | 255° |
| 2026-04-11 23:05 | 39.43742 | -111.77629 | 40014 ft | 407 kts | 255° |
| 2026-04-11 23:05 | 39.42443 | -111.84753 | 40001 ft | 408 kts | 255° |
| 2026-04-11 23:06 | 39.41137 | -111.91887 | 39998 ft | 408 kts | 255° |
| 2026-04-11 23:06 | 39.39833 | -111.98983 | 39981 ft | 408 kts | 255° |
| 2026-04-11 23:07 | 39.38514 | -112.06134 | 39975 ft | 409 kts | 255° |
| 2026-04-11 23:07 | 39.37198 | -112.13246 | 39968 ft | 409 kts | 255° |
| 2026-04-11 23:08 | 39.35867 | -112.20414 | 39968 ft | 409 kts | 255° |
| 2026-04-11 23:08 | 39.34536 | -112.27552 | 39962 ft | 409 kts | 256° |
| 2026-04-11 23:09 | 39.33211 | -112.34632 | 39947 ft | 409 kts | 256° |
| 2026-04-11 23:09 | 39.31870 | -112.41773 | 39934 ft | 409 kts | 256° |
| 2026-04-11 23:10 | 39.30530 | -112.48885 | 39928 ft | 408 kts | 256° |
| 2026-04-11 23:10 | 39.29572 | -112.56067 | 39922 ft | 409 kts | 261° |
| 2026-04-11 23:11 | 39.28790 | -112.63329 | 39921 ft | 408 kts | 261° |
| 2026-04-11 23:11 | 39.28002 | -112.70571 | 39938 ft | 408 kts | 261° |
| 2026-04-11 23:12 | 39.27206 | -112.77812 | 39941 ft | 409 kts | 261° |
| 2026-04-11 23:12 | 39.26407 | -112.85033 | 39946 ft | 409 kts | 261° |
| 2026-04-11 23:13 | 39.25597 | -112.92303 | 39931 ft | 409 kts | 261° |
| 2026-04-11 23:13 | 39.24780 | -112.99577 | 39917 ft | 409 kts | 261° |
| 2026-04-11 23:14 | 39.23965 | -113.06790 | 39924 ft | 409 kts | 261° |
| 2026-04-11 23:14 | 39.23145 | -113.14010 | 39917 ft | 409 kts | 261° |
| 2026-04-11 23:15 | 39.22319 | -113.21235 | 39930 ft | 408 kts | 261° |
| 2026-04-11 23:15 | 39.21482 | -113.28509 | 39934 ft | 408 kts | 261° |
| 2026-04-11 23:16 | 39.20649 | -113.35712 | 39946 ft | 408 kts | 261° |
| 2026-04-11 23:16 | 39.19809 | -113.42931 | 39942 ft | 408 kts | 261° |
| 2026-04-11 23:17 | 39.18965 | -113.50138 | 39950 ft | 407 kts | 261° |
| 2026-04-11 23:17 | 39.18119 | -113.57318 | 39946 ft | 407 kts | 261° |
| 2026-04-11 23:18 | 39.17271 | -113.64484 | 39951 ft | 407 kts | 261° |
| 2026-04-11 23:18 | 39.16411 | -113.71706 | 39949 ft | 407 kts | 261° |
| 2026-04-11 23:19 | 39.15551 | -113.78889 | 39949 ft | 407 kts | 261° |
| 2026-04-11 23:19 | 39.14679 | -113.86141 | 39943 ft | 408 kts | 261° |
| 2026-04-11 23:20 | 39.13810 | -113.93327 | 39943 ft | 408 kts | 261° |
| 2026-04-11 23:20 | 39.12932 | -114.00547 | 39930 ft | 406 kts | 261° |
| 2026-04-11 23:21 | 39.12056 | -114.07713 | 39950 ft | 404 kts | 261° |
| 2026-04-11 23:21 | 39.11182 | -114.14824 | 39958 ft | 404 kts | 261° |
| 2026-04-11 23:22 | 39.10300 | -114.21968 | 39968 ft | 403 kts | 261° |
| 2026-04-11 23:22 | 39.09419 | -114.29061 | 39965 ft | 403 kts | 261° |
| 2026-04-11 23:23 | 39.08530 | -114.36185 | 39967 ft | 403 kts | 261° |
| 2026-04-11 23:23 | 39.07643 | -114.43262 | 39958 ft | 403 kts | 261° |
| 2026-04-11 23:24 | 39.06748 | -114.50362 | 39958 ft | 402 kts | 261° |
| 2026-04-11 23:24 | 39.05850 | -114.57447 | 39957 ft | 402 kts | 261° |
| 2026-04-11 23:25 | 39.04946 | -114.64551 | 39957 ft | 402 kts | 261° |
| 2026-04-11 23:25 | 39.04041 | -114.71622 | 39977 ft | 402 kts | 260° |
| 2026-04-11 23:26 | 39.03128 | -114.78728 | 39972 ft | 402 kts | 260° |
| 2026-04-11 23:26 | 39.02216 | -114.85789 | 39969 ft | 403 kts | 260° |
| 2026-04-11 23:27 | 39.01294 | -114.92886 | 39967 ft | 403 kts | 260° |
| 2026-04-11 23:27 | 39.00366 | -115.00008 | 39974 ft | 403 kts | 260° |
| 2026-04-11 23:28 | 38.99437 | -115.07092 | 39971 ft | 403 kts | 260° |
| 2026-04-11 23:28 | 38.98507 | -115.14156 | 39970 ft | 403 kts | 260° |
| 2026-04-11 23:29 | 38.97570 | -115.21237 | 39966 ft | 402 kts | 260° |
| 2026-04-11 23:29 | 38.96629 | -115.28313 | 39951 ft | 402 kts | 260° |
| 2026-04-11 23:30 | 38.95689 | -115.35350 | 39968 ft | 400 kts | 260° |
| 2026-04-11 23:30 | 38.94741 | -115.42418 | 39976 ft | 400 kts | 260° |
| 2026-04-11 23:31 | 38.93800 | -115.49395 | 39974 ft | 400 kts | 260° |
| 2026-04-11 23:31 | 38.92851 | -115.56403 | 39965 ft | 399 kts | 260° |
| 2026-04-11 23:32 | 38.91901 | -115.63383 | 39976 ft | 398 kts | 259° |
| 2026-04-11 23:32 | 38.90942 | -115.70396 | 39968 ft | 398 kts | 259° |
| 2026-04-11 23:33 | 38.89983 | -115.77377 | 39961 ft | 397 kts | 259° |
| 2026-04-11 23:33 | 38.89022 | -115.84345 | 39965 ft | 396 kts | 259° |
| 2026-04-11 23:34 | 38.88065 | -115.91248 | 39963 ft | 394 kts | 259° |
| 2026-04-11 23:34 | 38.87105 | -115.98144 | 39959 ft | 392 kts | 259° |
| 2026-04-11 23:35 | 38.86141 | -116.05037 | 39960 ft | 391 kts | 259° |
| 2026-04-11 23:35 | 38.85182 | -116.11862 | 39958 ft | 391 kts | 258° |
| 2026-04-11 23:36 | 38.84214 | -116.18720 | 39960 ft | 391 kts | 259° |
| 2026-04-11 23:36 | 38.83246 | -116.25553 | 39959 ft | 391 kts | 259° |
| 2026-04-11 23:37 | 38.82274 | -116.32385 | 39956 ft | 391 kts | 258° |
| 2026-04-11 23:37 | 38.81290 | -116.39271 | 39946 ft | 391 kts | 259° |
| 2026-04-11 23:38 | 38.80310 | -116.46095 | 39944 ft | 391 kts | 258° |
| 2026-04-11 23:38 | 38.79326 | -116.52924 | 39939 ft | 391 kts | 258° |
| 2026-04-11 23:39 | 38.78336 | -116.59761 | 39939 ft | 390 kts | 258° |
| 2026-04-11 23:39 | 38.77344 | -116.66583 | 39928 ft | 390 kts | 258° |
| 2026-04-11 23:40 | 38.76360 | -116.73319 | 39930 ft | 390 kts | 258° |
| 2026-04-11 23:40 | 38.75381 | -116.79992 | 39928 ft | 390 kts | 257° |
| 2026-04-11 23:41 | 38.74464 | -116.86222 | 39925 ft | 389 kts | 257° |
| 2026-04-11 23:41 | 38.73496 | -116.92764 | 39931 ft | 388 kts | 257° |
| 2026-04-11 23:42 | 38.72522 | -116.99339 | 39918 ft | 386 kts | 257° |
| 2026-04-11 23:42 | 38.71520 | -117.06061 | 39914 ft | 386 kts | 257° |
| 2026-04-11 23:43 | 38.70002 | -117.16198 | 39918 ft | 386 kts | 258° |
| 2026-04-11 23:44 | 38.68473 | -117.26344 | 39911 ft | 386 kts | 257° |
| 2026-04-11 23:44 | 38.67452 | -117.33087 | 39905 ft | 386 kts | 257° |
| 2026-04-11 23:45 | 38.66430 | -117.39805 | 39908 ft | 386 kts | 257° |
| 2026-04-11 23:45 | 38.65422 | -117.46406 | 39900 ft | 386 kts | 257° |
| 2026-04-11 23:46 | 38.64387 | -117.53158 | 39902 ft | 385 kts | 257° |
| 2026-04-11 23:46 | 38.63343 | -117.59940 | 39891 ft | 385 kts | 257° |
| 2026-04-11 23:47 | 38.62304 | -117.66667 | 39889 ft | 385 kts | 256° |
| 2026-04-11 23:47 | 38.61268 | -117.73341 | 39869 ft | 386 kts | 256° |
| 2026-04-11 23:48 | 38.60206 | -117.80148 | 39875 ft | 387 kts | 256° |
| 2026-04-11 23:48 | 38.59148 | -117.86917 | 39889 ft | 387 kts | 256° |
| 2026-04-11 23:49 | 38.58090 | -117.93658 | 39874 ft | 388 kts | 256° |
| 2026-04-11 23:49 | 38.57031 | -118.00378 | 39875 ft | 388 kts | 256° |
| 2026-04-11 23:50 | 38.55978 | -118.07179 | 39888 ft | 388 kts | 256° |
| 2026-04-11 23:50 | 38.54942 | -118.14010 | 39874 ft | 389 kts | 256° |
| 2026-04-11 23:51 | 38.53912 | -118.20771 | 39864 ft | 389 kts | 256° |
| 2026-04-11 23:51 | 38.52867 | -118.27605 | 39860 ft | 389 kts | 256° |
| 2026-04-11 23:52 | 38.51830 | -118.34355 | 39870 ft | 389 kts | 256° |
| 2026-04-11 23:52 | 38.50782 | -118.41139 | 39873 ft | 389 kts | 256° |
| 2026-04-11 23:53 | 38.49720 | -118.47990 | 39864 ft | 389 kts | 256° |
| 2026-04-11 23:53 | 38.48663 | -118.54784 | 39867 ft | 389 kts | 256° |
| 2026-04-11 23:54 | 38.47601 | -118.61572 | 39883 ft | 388 kts | 256° |
| 2026-04-11 23:54 | 38.46537 | -118.68357 | 39884 ft | 388 kts | 255° |
| 2026-04-11 23:55 | 38.45490 | -118.75003 | 39879 ft | 389 kts | 255° |
| 2026-04-11 23:55 | 38.44418 | -118.81776 | 39880 ft | 389 kts | 255° |
| 2026-04-11 23:56 | 38.43335 | -118.88593 | 39888 ft | 390 kts | 255° |
| 2026-04-11 23:56 | 38.42261 | -118.95332 | 39890 ft | 390 kts | 255° |
| 2026-04-11 23:57 | 38.41172 | -119.02137 | 39892 ft | 390 kts | 255° |
| 2026-04-11 23:57 | 38.40086 | -119.08897 | 39882 ft | 388 kts | 255° |
| 2026-04-11 23:58 | 38.38998 | -119.15634 | 39886 ft | 387 kts | 255° |
| 2026-04-11 23:58 | 38.37925 | -119.22263 | 39893 ft | 385 kts | 255° |
| 2026-04-11 23:59 | 38.36831 | -119.28983 | 39856 ft | 386 kts | 255° |
| 2026-04-11 23:59 | 38.35741 | -119.35660 | 39877 ft | 385 kts | 255° |
| 2026-04-12 00:00 | 38.34648 | -119.42331 | 39842 ft | 385 kts | 255° |
| 2026-04-12 00:00 | 38.33546 | -119.49030 | 39827 ft | 386 kts | 255° |
| 2026-04-12 00:01 | 38.32448 | -119.55677 | 39869 ft | 384 kts | 255° |
| 2026-04-12 00:01 | 38.31345 | -119.62331 | 39874 ft | 384 kts | 255° |
| 2026-04-12 00:02 | 38.30247 | -119.68929 | 39838 ft | 385 kts | 254° |
| 2026-04-12 00:02 | 38.29158 | -119.75461 | 39867 ft | 384 kts | 254° |
| 2026-04-12 00:03 | 38.28060 | -119.82007 | 39875 ft | 386 kts | 255° |
| 2026-04-12 00:03 | 38.26930 | -119.88721 | 39894 ft | 386 kts | 254° |
| 2026-04-12 00:04 | 38.25804 | -119.95384 | 39892 ft | 385 kts | 255° |
| 2026-04-12 00:04 | 38.24684 | -120.01989 | 39895 ft | 386 kts | 254° |
| 2026-04-12 00:05 | 38.23546 | -120.08682 | 39908 ft | 386 kts | 255° |
| 2026-04-12 00:05 | 38.22407 | -120.15347 | 39907 ft | 387 kts | 255° |
| 2026-04-12 00:05 | 38.21840 | -120.18658 | 39706 ft | 392 kts | 255° |
| 2026-04-12 00:06 | 38.21246 | -120.22111 | 39205 ft | 399 kts | 255° |
| 2026-04-12 00:06 | 38.20658 | -120.25539 | 38688 ft | 396 kts | 255° |
| 2026-04-12 00:06 | 38.20078 | -120.28916 | 38170 ft | 394 kts | 253° |
| 2026-04-12 00:06 | 38.19488 | -120.32339 | 37644 ft | 393 kts | 253° |
| 2026-04-12 00:07 | 38.18908 | -120.35702 | 37128 ft | 392 kts | 254° |
| 2026-04-12 00:07 | 38.18324 | -120.39080 | 36589 ft | 391 kts | 253° |
| 2026-04-12 00:07 | 38.17752 | -120.42378 | 36098 ft | 391 kts | 253° |
| 2026-04-12 00:07 | 38.17172 | -120.45767 | 35579 ft | 386 kts | 254° |
| 2026-04-12 00:08 | 38.16827 | -120.49153 | 35038 ft | 386 kts | 261° |
| 2026-04-12 00:08 | 38.16854 | -120.52534 | 34522 ft | 386 kts | 266° |
| 2026-04-12 00:08 | 38.17106 | -120.55923 | 33974 ft | 384 kts | 267° |
| 2026-04-12 00:08 | 38.17370 | -120.59275 | 33468 ft | 379 kts | 267° |
| 2026-04-12 00:09 | 38.17622 | -120.62545 | 32980 ft | 374 kts | 267° |
| 2026-04-12 00:09 | 38.17873 | -120.65814 | 32488 ft | 369 kts | 266° |
| 2026-04-12 00:09 | 38.18121 | -120.69064 | 31992 ft | 365 kts | 266° |
| 2026-04-12 00:09 | 38.18361 | -120.72237 | 31499 ft | 361 kts | 266° |
| 2026-04-12 00:10 | 38.18596 | -120.75365 | 31035 ft | 356 kts | 265° |
| 2026-04-12 00:10 | 38.18830 | -120.78497 | 30563 ft | 352 kts | 265° |
| 2026-04-12 00:10 | 38.19055 | -120.81529 | 30077 ft | 349 kts | 264° |
| 2026-04-12 00:10 | 38.19280 | -120.84566 | 29639 ft | 343 kts | 265° |
| 2026-04-12 00:11 | 38.19500 | -120.87557 | 29187 ft | 338 kts | 265° |
| 2026-04-12 00:11 | 38.19718 | -120.90527 | 28749 ft | 333 kts | 265° |
| 2026-04-12 00:11 | 38.19927 | -120.93445 | 28285 ft | 333 kts | 264° |
| 2026-04-12 00:11 | 38.20136 | -120.96388 | 27843 ft | 334 kts | 265° |
| 2026-04-12 00:12 | 38.20347 | -120.99350 | 27394 ft | 334 kts | 265° |
| 2026-04-12 00:12 | 38.20556 | -121.02260 | 26958 ft | 332 kts | 265° |
| 2026-04-12 00:12 | 38.20969 | -121.05155 | 26496 ft | 343 kts | 275° |
| 2026-04-12 00:12 | 38.21681 | -121.08056 | 26002 ft | 343 kts | 276° |
| 2026-04-12 00:13 | 38.22412 | -121.10957 | 25539 ft | 339 kts | 277° |
| 2026-04-12 00:13 | 38.23123 | -121.13808 | 25089 ft | 338 kts | 276° |
| 2026-04-12 00:13 | 38.23816 | -121.16599 | 24674 ft | 336 kts | 277° |
| 2026-04-12 00:13 | 38.24514 | -121.19422 | 24214 ft | 334 kts | 277° |
| 2026-04-12 00:14 | 38.25207 | -121.22232 | 23781 ft | 334 kts | 277° |
| 2026-04-12 00:14 | 38.25901 | -121.25048 | 23338 ft | 332 kts | 277° |
| 2026-04-12 00:14 | 38.26593 | -121.27866 | 22896 ft | 331 kts | 277° |
| 2026-04-12 00:14 | 38.27278 | -121.30658 | 22471 ft | 330 kts | 277° |
| 2026-04-12 00:15 | 38.27957 | -121.33430 | 22031 ft | 328 kts | 277° |
| 2026-04-12 00:15 | 38.28630 | -121.36181 | 21601 ft | 327 kts | 277° |
| 2026-04-12 00:15 | 38.29298 | -121.38917 | 21175 ft | 326 kts | 277° |
| 2026-04-12 00:15 | 38.29974 | -121.41689 | 20739 ft | 325 kts | 277° |
| 2026-04-12 00:16 | 38.30640 | -121.44423 | 20309 ft | 323 kts | 277° |
| 2026-04-12 00:16 | 38.31313 | -121.47192 | 19876 ft | 322 kts | 277° |
| 2026-04-12 00:16 | 38.31961 | -121.49864 | 19444 ft | 320 kts | 277° |
| 2026-04-12 00:16 | 38.32622 | -121.52592 | 19028 ft | 319 kts | 278° |
| 2026-04-12 00:17 | 38.33272 | -121.55278 | 18596 ft | 319 kts | 278° |
| 2026-04-12 00:17 | 38.33926 | -121.57983 | 18186 ft | 317 kts | 278° |
| 2026-04-12 00:17 | 38.34581 | -121.60697 | 17764 ft | 316 kts | 278° |
| 2026-04-12 00:17 | 38.35227 | -121.63371 | 17540 ft | 315 kts | 278° |
| 2026-04-12 00:18 | 38.35870 | -121.66055 | 17046 ft | 316 kts | 278° |
| 2026-04-12 00:18 | 38.36506 | -121.68688 | 16651 ft | 311 kts | 277° |
| 2026-04-12 00:18 | 38.37137 | -121.71307 | 16242 ft | 308 kts | 277° |
| 2026-04-12 00:18 | 38.37767 | -121.73933 | 15820 ft | 306 kts | 277° |
| 2026-04-12 00:19 | 38.38386 | -121.76514 | 15421 ft | 305 kts | 277° |
| 2026-04-12 00:19 | 38.39008 | -121.79112 | 15015 ft | 305 kts | 277° |
| 2026-04-12 00:19 | 38.39618 | -121.81664 | 14620 ft | 302 kts | 277° |
| 2026-04-12 00:19 | 38.40234 | -121.84241 | 14205 ft | 301 kts | 277° |
| 2026-04-12 00:20 | 38.40847 | -121.86811 | 13816 ft | 300 kts | 277° |
| 2026-04-12 00:20 | 38.41456 | -121.89368 | 13417 ft | 300 kts | 277° |
| 2026-04-12 00:20 | 38.42065 | -121.91926 | 13010 ft | 298 kts | 278° |
| 2026-04-12 00:20 | 38.42662 | -121.94434 | 12615 ft | 296 kts | 278° |
| 2026-04-12 00:21 | 38.43262 | -121.96952 | 12227 ft | 292 kts | 278° |
| 2026-04-12 00:21 | 38.43847 | -121.99410 | 11808 ft | 287 kts | 277° |
| 2026-04-12 00:21 | 38.44419 | -122.01803 | 11456 ft | 275 kts | 277° |
| 2026-04-12 00:21 | 38.44964 | -122.04084 | 11098 ft | 265 kts | 277° |
| 2026-04-12 00:22 | 38.45495 | -122.06316 | 10767 ft | 256 kts | 277° |
| 2026-04-12 00:22 | 38.46002 | -122.08453 | 10434 ft | 249 kts | 277° |
| 2026-04-12 00:22 | 38.46495 | -122.10535 | 10109 ft | 243 kts | 277° |
| 2026-04-12 00:22 | 38.46977 | -122.12582 | 9772 ft | 238 kts | 277° |
| 2026-04-12 00:23 | 38.47448 | -122.14590 | 9296 ft | 240 kts | 277° |
| 2026-04-12 00:23 | 38.48165 | -122.16598 | 8782 ft | 260 kts | 297° |
| 2026-04-12 00:23 | 38.49297 | -122.18481 | 8144 ft | 273 kts | 301° |
| 2026-04-12 00:23 | 38.50496 | -122.20417 | 7499 ft | 275 kts | 301° |
| 2026-04-12 00:24 | 38.51671 | -122.22344 | 6859 ft | 274 kts | 297° |
| 2026-04-12 00:24 | 38.52390 | -122.24455 | 6269 ft | 255 kts | 271° |
| 2026-04-12 00:24 | 38.52311 | -122.26525 | 5921 ft | 227 kts | 248° |
| 2026-04-12 00:24 | 38.51706 | -122.28275 | 5883 ft | 200 kts | 233° |
| 2026-04-12 00:25 | 38.51018 | -122.29690 | 5885 ft | 183 kts | 232° |
| 2026-04-12 00:25 | 38.50370 | -122.31021 | 5873 ft | 169 kts | 231° |
| 2026-04-12 00:25 | 38.49762 | -122.32262 | 5866 ft | 166 kts | 232° |
| 2026-04-12 00:25 | 38.49136 | -122.33523 | 5853 ft | 166 kts | 231° |
| 2026-04-12 00:26 | 38.48274 | -122.34455 | 5570 ft | 170 kts | 199° |
| 2026-04-12 00:26 | 38.47061 | -122.34563 | 5013 ft | 182 kts | 181° |
| 2026-04-12 00:26 | 38.45782 | -122.34461 | 4498 ft | 186 kts | 181° |
| 2026-04-12 00:26 | 38.44476 | -122.34370 | 3985 ft | 188 kts | 181° |
| 2026-04-12 00:27 | 38.43209 | -122.34280 | 3690 ft | 179 kts | 181° |
| 2026-04-12 00:27 | 38.42083 | -122.34197 | 3681 ft | 157 kts | 181° |
| 2026-04-12 00:27 | 38.41074 | -122.34119 | 3731 ft | 134 kts | 182° |
| 2026-04-12 00:27 | 38.40152 | -122.34050 | 3669 ft | 134 kts | 180° |
| 2026-04-12 00:28 | 38.39263 | -122.33659 | 3341 ft | 147 kts | 161° |
| 2026-04-12 00:28 | 38.38381 | -122.33016 | 2968 ft | 150 kts | 159° |
| 2026-04-12 00:28 | 38.37538 | -122.32394 | 2875 ft | 136 kts | 159° |
| 2026-04-12 00:28 | 38.36701 | -122.31782 | 2867 ft | 136 kts | 159° |
| 2026-04-12 00:29 | 38.35875 | -122.31184 | 2860 ft | 133 kts | 159° |
| 2026-04-12 00:29 | 38.35092 | -122.30613 | 2847 ft | 130 kts | 159° |
| 2026-04-12 00:29 | 38.34312 | -122.30054 | 2467 ft | 133 kts | 160° |
| 2026-04-12 00:29 | 38.33508 | -122.29483 | 2030 ft | 130 kts | 159° |
| 2026-04-12 00:30 | 38.32751 | -122.28938 | 1875 ft | 126 kts | 160° |
| 2026-04-12 00:30 | 38.31998 | -122.28404 | 1874 ft | 121 kts | 159° |
| 2026-04-12 00:30 | 38.31252 | -122.27876 | 1894 ft | 122 kts | 160° |
| 2026-04-12 00:30 | 38.30544 | -122.27379 | 1896 ft | 110 kts | 165° |
| 2026-04-12 00:31 | 38.29827 | -122.27234 | 1732 ft | 102 kts | 184° |
| 2026-04-12 00:31 | 38.29123 | -122.27233 | 1474 ft | 99 kts | 188° |
| 2026-04-12 00:31 | 38.28436 | -122.27283 | 1281 ft | 102 kts | 187° |
| 2026-04-12 00:31 | 38.27708 | -122.27298 | 1133 ft | 104 kts | 184° |
| 2026-04-12 00:32 | 38.26974 | -122.27266 | 1090 ft | 112 kts | 182° |
| 2026-04-12 00:32 | 38.26170 | -122.27248 | 1074 ft | 107 kts | 182° |
| 2026-04-12 00:32 | 38.25468 | -122.27222 | 793 ft | 100 kts | 182° |
| 2026-04-12 00:32 | 38.24705 | -122.27208 | 711 ft | 113 kts | 181° |
| 2026-04-12 00:33 | 38.23951 | -122.27192 | 462 ft | 102 kts | 182° |
| 2026-04-12 00:33 | 38.23269 | -122.27335 | 311 ft | 102 kts | 199° |
| 2026-04-12 00:33 | 38.22597 | -122.27672 | 131 ft | 103 kts | 199° |
| 2026-04-12 00:33 | 38.21965 | -122.27966 | 32 ft | 84 kts | 199° |
| 2026-04-12 00:34 | 38.21504 | -122.28185 | 23 ft | 51 kts | 200° |
| 2026-04-12 00:34 | 38.21247 | -122.28311 | 21 ft | 28 kts | 201° |
| 2026-04-12 00:34 | 38.21078 | -122.28391 | 19 ft | 22 kts | 201° |
| 2026-04-12 00:34 | 38.20981 | -122.28437 | 19 ft | 8 kts | 179° |
| 2026-04-12 00:35 | 38.20975 | -122.28363 | 19 ft | 11 kts | 77° |
| 2026-04-12 00:35 | 38.20994 | -122.28252 | 20 ft | 14 kts | 80° |
| 2026-04-12 00:35 | 38.21019 | -122.28120 | 22 ft | 16 kts | 77° |
| 2026-04-12 00:35 | 38.21047 | -122.27971 | 24 ft | 18 kts | 76° |
| 2026-04-12 00:36 | 38.21079 | -122.27804 | 26 ft | 18 kts | 77° |
| 2026-04-12 00:36 | 38.21106 | -122.27658 | 28 ft | 17 kts | 77° |
| 2026-04-12 00:36 | 38.21133 | -122.27503 | 31 ft | 18 kts | 77° |
| 2026-04-12 00:36 | 38.21163 | -122.27347 | 33 ft | 17 kts | 77° |
| 2026-04-12 00:37 | 38.21195 | -122.27232 | 35 ft | 9 kts | 14° |
| 2026-04-12 00:37 | 38.21269 | -122.27277 | 34 ft | 14 kts | 333° |
| 2026-04-12 00:37 | 38.21348 | -122.27327 | 33 ft | 14 kts | 333° |
| 2026-04-12 00:37 | 38.21444 | -122.27390 | 32 ft | 17 kts | 333° |
| 2026-04-12 00:38 | 38.21552 | -122.27460 | 31 ft | 16 kts | 332° |
| 2026-04-12 00:38 | 38.21655 | -122.27527 | 30 ft | 16 kts | 333° |
| 2026-04-12 00:38 | 38.21757 | -122.27594 | 29 ft | 15 kts | 333° |
| 2026-04-12 00:38 | 38.21825 | -122.27638 | 29 ft | 4 kts | 337° |
| 2026-04-12 00:39 | 38.21847 | -122.27615 | 29 ft | 6 kts | 58° |
| 2026-04-12 00:39 | 38.21880 | -122.27619 | 29 ft | 7 kts | 332° |
| 2026-04-12 00:39 | 38.21919 | -122.27628 | 29 ft | 6 kts | 55° |
| 2026-04-12 00:39 | 38.21946 | -122.27567 | 29 ft | 6 kts | 59° |
| 2026-04-12 00:40 | 38.21955 | -122.27530 | 29 ft | 3 kts | 119° |
| 2026-04-12 00:40 | 38.21950 | -122.27525 | 29 ft | 0 kts | 150° |